createdAt,value
2022-08-14T00:02:27.169Z,98644.41
2022-08-14T00:04:56.360Z,98651.03
2022-08-14T00:07:24.217Z,98643.66
2022-08-14T00:10:02.024Z,98642.34
2022-08-14T00:12:48.065Z,98643.59
2022-08-14T00:15:43.300Z,98636.91
2022-08-14T00:18:30.384Z,98637.37
2022-08-14T00:21:05.020Z,98633.22
2022-08-14T00:23:40.206Z,98634.41
2022-08-14T00:26:08.418Z,98637.66
2022-08-14T00:28:51.452Z,98639.38
2022-08-14T00:31:19.800Z,98631.84
2022-08-14T00:34:36.957Z,98629.31
2022-08-14T00:36:51.439Z,98626.84
2022-08-14T00:39:19.701Z,98632.13
2022-08-14T00:41:48.345Z,98625.06
2022-08-14T00:44:21.542Z,98628.44
2022-08-14T00:47:03.625Z,98621.50
2022-08-14T00:49:38.380Z,98621.28
2022-08-14T00:52:14.170Z,98625.72
2022-08-14T00:54:49.891Z,98618.25
2022-08-14T00:57:20.016Z,98618.56
2022-08-14T00:59:48.679Z,98625.56
2022-08-14T01:02:25.004Z,98617.56
2022-08-14T01:04:58.391Z,98619.09
2022-08-14T01:07:38.909Z,98617.19
2022-08-14T01:10:15.191Z,98629.25
2022-08-14T01:12:44.516Z,98624.91
2022-08-14T01:15:17.089Z,98631.00
2022-08-14T01:18:03.659Z,98629.94
2022-08-14T01:20:51.429Z,98629.00
2022-08-14T01:23:21.718Z,98633.44
2022-08-14T01:25:52.342Z,98627.94
2022-08-14T01:28:46.162Z,98621.56
2022-08-14T01:31:14.287Z,98626.25
2022-08-14T01:33:59.691Z,98626.09
2022-08-14T01:36:39.354Z,98633.03
2022-08-14T01:39:12.937Z,98633.41
2022-08-14T01:41:58.302Z,98628.94
2022-08-14T01:44:33.476Z,98639.63
2022-08-14T01:47:19.579Z,98638.75
2022-08-14T01:50:01.139Z,98640.50
2022-08-14T01:52:57.769Z,98634.88
2022-08-14T01:55:30.742Z,98633.00
2022-08-14T01:58:01.809Z,98631.66
2022-08-14T02:00:55.045Z,98632.44
2022-08-14T02:03:30.216Z,98627.84
2022-08-14T02:06:32.098Z,98627.84
2022-08-14T02:08:52.921Z,98636.37
2022-08-14T02:11:24.686Z,98637.03
2022-08-14T02:13:59.748Z,98639.94
2022-08-14T02:16:39.566Z,98647.78
2022-08-14T02:19:14.680Z,98643.94
2022-08-14T02:21:50.306Z,98642.91
2022-08-14T02:24:40.129Z,98638.34
2022-08-14T02:28:25.302Z,98646.03
2022-08-14T02:30:02.074Z,98641.72
2022-08-14T02:32:36.170Z,98633.47
2022-08-14T02:35:19.150Z,98630.69
2022-08-14T02:37:50.185Z,98622.56
2022-08-14T02:40:19.641Z,98620.03
2022-08-14T02:42:54.677Z,98629.47
2022-08-14T02:45:38.747Z,98634.56
2022-08-14T02:49:01.528Z,98631.88
2022-08-14T02:51:05.188Z,98641.94
2022-08-14T02:53:33.618Z,98638.69
2022-08-14T02:56:29.453Z,98641.75
2022-08-14T02:58:55.666Z,98645.50
2022-08-14T03:01:26.179Z,98640.62
2022-08-14T03:03:59.541Z,98642.00
2022-08-14T03:06:57.185Z,98646.00
2022-08-14T03:09:15.568Z,98641.88
2022-08-14T03:11:45.057Z,98640.06
2022-08-14T03:14:15.461Z,98644.97
2022-08-14T03:16:49.315Z,98648.78
2022-08-14T03:19:19.763Z,98638.69
2022-08-14T03:21:52.905Z,98646.59
2022-08-14T03:24:23.350Z,98647.81
2022-08-14T03:26:57.444Z,98651.09
2022-08-14T03:29:27.872Z,98640.72
2022-08-14T03:31:57.628Z,98641.09
2022-08-14T03:34:52.648Z,98651.72
2022-08-14T03:37:37.978Z,98639.84
2022-08-14T03:40:05.148Z,98640.34
2022-08-14T03:42:45.504Z,98644.50
2022-08-14T03:45:26.134Z,98647.38
2022-08-14T03:48:04.917Z,98639.34
2022-08-14T03:50:39.707Z,98641.91
2022-08-14T03:53:07.787Z,98642.38
2022-08-14T03:55:36.998Z,98642.41
2022-08-14T03:58:09.358Z,98646.53
2022-08-14T04:00:44.837Z,98642.06
2022-08-14T04:03:23.568Z,98648.09
2022-08-14T04:05:53.607Z,98650.94
2022-08-14T04:08:29.791Z,98648.22
2022-08-14T04:11:01.193Z,98652.44
2022-08-14T04:13:34.429Z,98648.00
2022-08-14T04:16:26.098Z,98653.84
2022-08-14T04:19:01.234Z,98660.63
2022-08-14T04:21:30.860Z,98651.09
2022-08-14T04:24:08.227Z,98656.00
2022-08-14T04:26:42.162Z,98659.91
2022-08-14T04:29:14.890Z,98663.25
2022-08-14T04:32:58.864Z,98664.12
2022-08-14T04:34:34.159Z,98664.91
2022-08-14T04:37:24.603Z,98666.06
2022-08-14T04:40:13.637Z,98673.41
2022-08-14T04:43:01.791Z,98666.63
2022-08-14T04:45:40.818Z,98677.31
2022-08-14T04:48:13.703Z,98672.88
2022-08-14T04:51:03.549Z,98658.31
2022-08-14T04:53:35.371Z,98665.50
2022-08-14T04:56:06.189Z,98662.28
2022-08-14T04:58:57.648Z,98658.22
2022-08-14T05:01:27.026Z,98665.53
2022-08-14T05:03:56.078Z,98674.09
2022-08-14T05:06:37.154Z,98675.31
2022-08-14T05:09:14.165Z,98670.50
2022-08-14T05:11:44.263Z,98674.53
2022-08-14T05:14:16.670Z,98671.47
2022-08-14T05:17:01.833Z,98664.63
2022-08-14T05:19:31.938Z,98670.28
2022-08-14T05:22:16.811Z,98666.94
2022-08-14T05:24:50.628Z,98669.59
2022-08-14T05:27:22.691Z,98663.78
2022-08-14T05:29:53.802Z,98667.72
2022-08-14T05:32:27.454Z,98666.09
2022-08-14T05:35:00.254Z,98668.66
2022-08-14T05:37:29.620Z,98666.25
2022-08-14T05:39:59.439Z,98672.59
2022-08-14T05:42:31.716Z,98674.28
2022-08-14T05:45:00.426Z,98677.25
2022-08-14T05:47:28.642Z,98669.31
2022-08-14T05:49:59.751Z,98671.72
2022-08-14T05:52:38.344Z,98677.88
2022-08-14T05:55:16.896Z,98675.19
2022-08-14T05:57:53.745Z,98672.75
2022-08-14T06:00:29.278Z,98675.72
2022-08-14T06:03:00.660Z,98675.56
2022-08-14T06:05:32.371Z,98665.81
2022-08-14T06:08:08.576Z,98666.84
2022-08-14T06:10:49.990Z,98668.53
2022-08-14T06:13:19.070Z,98668.00
2022-08-14T06:15:48.379Z,98673.59
2022-08-14T06:18:17.683Z,98660.59
2022-08-14T06:20:46.879Z,98669.38
2022-08-14T06:23:14.697Z,98666.19
2022-08-14T06:25:44.840Z,98667.03
2022-08-14T06:28:27.415Z,98666.97
2022-08-14T06:30:56.328Z,98660.56
2022-08-14T06:33:45.791Z,98657.91
2022-08-14T06:36:13.474Z,98667.94
2022-08-14T06:38:50.194Z,98669.41
2022-08-14T06:41:20.594Z,98664.34
2022-08-14T06:43:49.541Z,98663.03
2022-08-14T06:46:23.216Z,98663.38
2022-08-14T06:49:03.111Z,98667.22
2022-08-14T06:51:39.069Z,98664.25
2022-08-14T06:54:13.540Z,98653.56
2022-08-14T06:56:44.374Z,98650.53
2022-08-14T06:59:22.319Z,98640.31
2022-08-14T07:02:13.393Z,98640.03
2022-08-14T07:05:05.539Z,98642.63
2022-08-14T07:07:39.130Z,98642.22
2022-08-14T07:10:13.224Z,98643.97
2022-08-14T07:12:56.365Z,98652.00
2022-08-14T07:15:32.566Z,98647.41
2022-08-14T07:18:03.704Z,98651.75
2022-08-14T07:20:37.288Z,98646.84
2022-08-14T07:23:09.196Z,98648.44
2022-08-14T07:25:42.153Z,98651.66
2022-08-14T07:28:20.728Z,98647.69
2022-08-14T07:31:05.098Z,98641.72
2022-08-14T07:33:50.320Z,98642.00
2022-08-14T07:36:27.246Z,98638.03
2022-08-14T07:38:59.758Z,98650.78
2022-08-14T07:41:33.671Z,98642.91
2022-08-14T07:44:29.438Z,98643.91
2022-08-14T07:46:50.991Z,98647.47
2022-08-14T07:49:20.318Z,98644.06
2022-08-14T07:51:49.322Z,98645.22
2022-08-14T07:54:23.650Z,98646.06
2022-08-14T07:57:00.687Z,98647.00
2022-08-14T07:59:41.949Z,98640.38
2022-08-14T08:02:17.377Z,98635.66
2022-08-14T08:04:54.040Z,98635.91
2022-08-14T08:07:29.960Z,98635.81
2022-08-14T08:10:02.076Z,98637.50
2022-08-14T08:12:32.379Z,98637.19
2022-08-14T08:15:05.636Z,98639.25
2022-08-14T08:17:53.229Z,98642.13
2022-08-14T08:20:29.352Z,98641.12
2022-08-14T08:23:00.579Z,98632.78
2022-08-14T08:25:39.524Z,98629.69
2022-08-14T08:28:19.899Z,98629.97
2022-08-14T08:30:56.833Z,98625.69
2022-08-14T08:33:32.067Z,98629.06
2022-08-14T08:36:03.648Z,98630.84
2022-08-14T08:39:17.704Z,98630.19
2022-08-14T08:41:20.001Z,98615.81
2022-08-14T08:43:47.770Z,98627.38
2022-08-14T08:46:23.393Z,98626.34
2022-08-14T08:51:33.211Z,98625.28
2022-08-14T08:54:18.494Z,98623.63
2022-08-14T08:56:49.276Z,98625.78
2022-08-14T08:59:34.245Z,98620.75
2022-08-14T09:02:06.372Z,98612.19
2022-08-14T09:04:52.842Z,98604.88
2022-08-14T09:07:28.127Z,98605.53
2022-08-14T09:10:00.122Z,98609.59
2022-08-14T09:12:32.547Z,98606.44
2022-08-14T09:15:12.243Z,98609.62
2022-08-14T09:17:42.183Z,98606.34
2022-08-14T09:20:12.509Z,98598.78
2022-08-14T09:22:48.313Z,98597.69
2022-08-14T09:25:19.803Z,98592.44
2022-08-14T09:28:05.999Z,98594.00
2022-08-14T09:30:36.184Z,98594.09
2022-08-14T09:33:26.507Z,98589.69
2022-08-14T09:36:11.843Z,98592.19
2022-08-14T09:39:23.298Z,98586.38
2022-08-14T09:42:33.325Z,98579.84
2022-08-14T09:45:15.420Z,98578.47
2022-08-14T09:47:56.251Z,98580.72
2022-08-14T09:50:26.440Z,98578.75
2022-08-14T09:53:04.016Z,98580.94
2022-08-14T09:55:42.358Z,98580.28
2022-08-14T09:58:19.370Z,98583.87
2022-08-14T10:01:00.819Z,98575.34
2022-08-14T10:03:34.510Z,98580.97
2022-08-14T10:06:13.821Z,98574.94
2022-08-14T10:08:44.435Z,98574.94
2022-08-14T10:11:24.615Z,98570.00
2022-08-14T10:14:29.413Z,98568.44
2022-08-14T10:17:06.411Z,98572.97
2022-08-14T10:19:37.091Z,98581.78
2022-08-14T10:23:12.652Z,98564.09
2022-08-14T10:24:59.870Z,98575.50
2022-08-14T10:27:29.142Z,98570.91
2022-08-14T10:30:01.195Z,98571.34
2022-08-14T10:32:39.929Z,98574.13
2022-08-14T10:35:17.457Z,98566.88
2022-08-14T10:37:49.938Z,98570.16
2022-08-14T10:40:38.087Z,98574.25
2022-08-14T10:43:25.924Z,98568.81
2022-08-14T10:46:04.041Z,98562.94
2022-08-14T10:49:04.766Z,98561.06
2022-08-14T10:51:39.608Z,98566.19
2022-08-14T10:54:36.236Z,98560.53
2022-08-14T10:57:18.865Z,98562.97
2022-08-14T10:59:53.939Z,98558.50
2022-08-14T11:02:46.026Z,98548.31
2022-08-14T11:05:28.532Z,98544.91
2022-08-14T11:07:56.847Z,98548.72
2022-08-14T11:10:38.664Z,98547.41
2022-08-14T11:13:16.603Z,98541.34
2022-08-14T11:15:46.440Z,98541.62
2022-08-14T11:18:20.783Z,98543.00
2022-08-14T11:21:01.894Z,98548.91
2022-08-14T11:23:37.795Z,98541.69
2022-08-14T11:26:08.907Z,98537.69
2022-08-14T11:28:47.949Z,98535.03
2022-08-14T11:31:23.702Z,98526.19
2022-08-14T11:33:55.596Z,98519.34
2022-08-14T11:36:35.418Z,98525.94
2022-08-14T11:39:33.439Z,98516.94
2022-08-14T11:42:57.376Z,98503.88
2022-08-14T11:44:53.619Z,98499.81
2022-08-14T11:47:25.002Z,98500.97
2022-08-14T11:49:54.233Z,98495.97
2022-08-14T11:52:22.002Z,98498.03
2022-08-14T11:54:58.624Z,98502.38
2022-08-14T11:57:26.879Z,98488.06
2022-08-14T12:00:08.472Z,98502.06
2022-08-14T12:03:02.819Z,98491.22
2022-08-14T12:05:36.692Z,98492.81
2022-08-14T12:08:12.184Z,98474.66
2022-08-14T12:10:43.432Z,98475.66
2022-08-14T12:13:17.502Z,98473.94
2022-08-14T12:15:51.405Z,98483.66
2022-08-14T12:18:29.992Z,98478.00
2022-08-14T12:20:59.987Z,98479.97
2022-08-14T12:23:28.273Z,98470.41
2022-08-14T12:26:31.620Z,98473.50
2022-08-14T12:29:00.353Z,98479.94
2022-08-14T12:31:28.489Z,98470.63
2022-08-14T12:34:10.091Z,98463.41
2022-08-14T12:36:38.584Z,98461.56
2022-08-14T12:39:22.645Z,98467.13
2022-08-14T12:41:57.263Z,98464.56
2022-08-14T12:44:39.514Z,98464.47
2022-08-14T12:47:21.343Z,98461.69
2022-08-14T12:49:57.825Z,98463.56
2022-08-14T12:52:30.660Z,98462.00
2022-08-14T12:55:17.312Z,98449.06
2022-08-14T12:57:49.373Z,98448.94
2022-08-14T13:00:24.422Z,98451.56
2022-08-14T13:02:55.565Z,98443.19
2022-08-14T13:05:30.268Z,98435.69
2022-08-14T13:07:59.493Z,98435.75
2022-08-14T13:10:46.874Z,98436.63
2022-08-14T13:13:17.950Z,98437.41
2022-08-14T13:15:48.192Z,98444.41
2022-08-14T13:18:26.622Z,98440.81
2022-08-14T13:20:59.619Z,98441.00
2022-08-14T13:23:36.207Z,98434.75
2022-08-14T13:26:07.456Z,98430.47
2022-08-14T13:29:02.353Z,98422.34
2022-08-14T13:31:39.544Z,98419.69
2022-08-14T13:34:14.364Z,98425.94
2022-08-14T13:36:54.724Z,98423.72
2022-08-14T13:39:27.441Z,98427.44
2022-08-14T13:41:57.570Z,98420.97
2022-08-14T13:44:28.831Z,98419.03
2022-08-14T13:46:58.584Z,98415.03
2022-08-14T13:49:29.067Z,98416.94
2022-08-14T13:51:59.192Z,98407.84
2022-08-14T13:54:31.323Z,98405.38
2022-08-14T13:57:10.222Z,98403.41
2022-08-14T13:59:46.410Z,98398.13
2022-08-14T14:02:31.513Z,98393.53
2022-08-14T14:05:01.658Z,98389.03
2022-08-14T14:07:32.073Z,98390.66
2022-08-14T14:10:06.179Z,98387.34
2022-08-14T14:12:49.059Z,98381.34
2022-08-14T14:15:33.867Z,98381.84
2022-08-14T14:18:29.931Z,98372.59
2022-08-14T14:21:02.571Z,98371.09
2022-08-14T14:23:32.456Z,98371.00
2022-08-14T14:26:00.502Z,98382.34
2022-08-14T14:28:31.708Z,98378.16
2022-08-14T14:31:06.154Z,98373.31
2022-08-14T14:33:51.615Z,98365.97
2022-08-14T14:36:28.523Z,98362.59
2022-08-14T14:38:59.348Z,98367.31
2022-08-14T14:41:43.772Z,98362.03
2022-08-14T14:44:15.904Z,98361.47
2022-08-14T14:46:50.346Z,98360.25
2022-08-14T14:49:21.760Z,98351.75
2022-08-14T14:51:51.310Z,98361.38
2022-08-14T14:54:31.257Z,98353.38
2022-08-14T14:57:02.373Z,98356.09
2022-08-14T14:59:33.360Z,98344.59
2022-08-14T15:02:08.057Z,98345.25
2022-08-14T15:04:43.638Z,98343.94
2022-08-14T15:07:12.533Z,98346.66
2022-08-14T15:09:41.357Z,98340.03
2022-08-14T15:12:34.149Z,98343.12
2022-08-14T15:15:08.220Z,98340.78
2022-08-14T15:17:41.765Z,98340.81
2022-08-14T15:20:17.430Z,98351.19
2022-08-14T15:22:58.632Z,98351.16
2022-08-14T15:25:32.153Z,98351.81
2022-08-14T15:28:01.777Z,98346.28
2022-08-14T15:30:32.775Z,98353.75
2022-08-14T15:33:00.762Z,98355.63
2022-08-14T15:35:29.686Z,98353.69
2022-08-14T15:38:08.904Z,98354.13
2022-08-14T15:40:41.105Z,98354.16
2022-08-14T15:43:13.982Z,98347.56
2022-08-14T15:45:43.962Z,98354.25
2022-08-14T15:48:22.246Z,98350.25
2022-08-14T15:50:51.687Z,98347.44
2022-08-14T15:53:22.705Z,98342.03
2022-08-14T15:55:52.847Z,98349.31
2022-08-14T15:58:25.472Z,98343.41
2022-08-14T16:01:13.211Z,98347.72
2022-08-14T16:03:42.561Z,98344.53
2022-08-14T16:06:18.024Z,98346.13
2022-08-14T16:08:50.314Z,98350.25
2022-08-14T16:11:26.164Z,98346.25
2022-08-14T16:13:57.464Z,98339.06
2022-08-14T16:16:34.472Z,98344.00
2022-08-14T16:19:19.115Z,98351.78
2022-08-14T16:22:02.584Z,98347.00
2022-08-14T16:25:00.310Z,98347.03
2022-08-14T16:27:39.037Z,98338.56
2022-08-14T16:30:24.862Z,98346.50
2022-08-14T16:32:56.944Z,98342.75
2022-08-14T16:35:42.508Z,98343.19
2022-08-14T16:38:45.941Z,98357.09
2022-08-14T16:41:27.379Z,98359.31
2022-08-14T16:44:04.648Z,98363.34
2022-08-14T16:46:43.581Z,98365.53
2022-08-14T16:49:14.096Z,98367.72
2022-08-14T16:51:43.861Z,98363.37
2022-08-14T16:54:20.835Z,98369.91
2022-08-14T16:57:22.705Z,98368.91
2022-08-14T16:59:57.877Z,98370.41
2022-08-14T17:02:44.186Z,98370.06
2022-08-14T17:05:25.045Z,98369.91
2022-08-14T17:08:41.825Z,98379.50
2022-08-14T17:11:10.707Z,98370.09
2022-08-14T17:13:59.591Z,98371.28
2022-08-14T17:16:37.638Z,98366.97
2022-08-14T17:19:11.606Z,98373.19
2022-08-14T17:21:47.578Z,98370.69
2022-08-14T17:24:56.588Z,98380.34
2022-08-14T17:27:11.101Z,98379.66
2022-08-14T17:29:56.733Z,98382.53
2022-08-14T17:32:55.825Z,98386.84
2022-08-14T17:35:26.761Z,98384.09
2022-08-14T17:38:39.072Z,98390.38
2022-08-14T17:41:32.954Z,98386.75
2022-08-14T17:44:20.184Z,98389.09
2022-08-14T17:46:55.291Z,98397.31
2022-08-14T17:49:32.176Z,98388.72
2022-08-14T17:52:17.492Z,98395.47
2022-08-14T17:55:01.529Z,98386.72
2022-08-14T17:57:35.241Z,98391.53
2022-08-14T18:00:12.762Z,98395.63
2022-08-14T18:02:51.140Z,98392.84
2022-08-14T18:05:23.454Z,98393.22
2022-08-14T18:08:34.351Z,98394.69
2022-08-14T18:11:00.412Z,98392.75
2022-08-14T18:13:49.953Z,98392.00
2022-08-14T18:16:19.687Z,98392.03
2022-08-14T18:18:48.604Z,98386.56
2022-08-14T18:21:40.467Z,98385.53
2022-08-14T18:24:05.091Z,98385.13
2022-08-14T18:27:01.787Z,98385.81
2022-08-14T18:29:31.717Z,98377.78
2022-08-14T18:32:00.186Z,98377.56
2022-08-14T18:34:36.955Z,98383.19
2022-08-14T18:37:19.672Z,98379.97
2022-08-14T18:40:01.644Z,98372.53
2022-08-14T18:42:35.311Z,98382.91
2022-08-14T18:45:12.355Z,98377.59
2022-08-14T18:50:33.611Z,98375.19
2022-08-14T18:53:07.511Z,98374.22
2022-08-14T18:55:36.720Z,98375.34
2022-08-14T18:58:30.885Z,98383.50
2022-08-14T19:01:00.686Z,98372.53
2022-08-14T19:03:36.492Z,98375.16
2022-08-14T19:06:09.802Z,98387.50
2022-08-14T19:08:40.073Z,98384.28
2022-08-14T19:11:40.571Z,98387.38
2022-08-14T19:14:14.130Z,98388.81
2022-08-14T19:16:48.377Z,98388.88
2022-08-14T19:19:23.863Z,98383.03
2022-08-14T19:21:55.963Z,98383.19
2022-08-14T19:24:45.253Z,98381.69
2022-08-14T19:27:25.008Z,98384.84
2022-08-14T19:30:20.246Z,98386.97
2022-08-14T19:32:57.845Z,98389.06
2022-08-14T19:35:48.556Z,98378.63
2022-08-14T19:38:54.421Z,98395.41
2022-08-14T19:41:34.137Z,98390.38
2022-08-14T19:44:10.249Z,98391.50
2022-08-14T19:47:02.616Z,98388.91
2022-08-14T19:50:07.997Z,98386.53
2022-08-14T19:52:35.246Z,98383.00
2022-08-14T19:55:20.323Z,98381.56
2022-08-14T19:57:58.388Z,98394.59
2022-08-14T20:00:29.415Z,98383.00
2022-08-14T20:03:10.470Z,98378.63
2022-08-14T20:05:45.591Z,98381.41
2022-08-14T20:10:59.870Z,98379.16
2022-08-14T20:11:41.596Z,98383.34
2022-08-14T20:14:12.136Z,98386.63
2022-08-14T20:16:54.883Z,98390.31
2022-08-14T20:19:28.621Z,98396.28
2022-08-14T20:22:04.544Z,98390.13
2022-08-14T20:24:47.602Z,98393.50
2022-08-14T20:27:22.782Z,98391.22
2022-08-14T20:30:33.726Z,98382.78
2022-08-14T20:33:07.917Z,98381.69
2022-08-14T20:35:39.023Z,98376.47
2022-08-14T20:38:29.328Z,98380.53
2022-08-14T20:41:08.606Z,98381.59
2022-08-14T20:44:01.041Z,98382.16
2022-08-14T20:46:38.781Z,98385.34
2022-08-14T20:49:09.843Z,98386.78
2022-08-14T20:51:54.482Z,98386.09
2022-08-14T20:54:34.271Z,98389.22
2022-08-14T20:57:14.107Z,98390.28
2022-08-14T20:59:44.974Z,98389.09
2022-08-14T21:02:38.717Z,98383.53
2022-08-14T21:05:20.669Z,98393.09
2022-08-14T21:07:50.321Z,98385.19
2022-08-14T21:10:35.683Z,98387.09
2022-08-14T21:13:27.221Z,98380.47
2022-08-14T21:16:34.485Z,98391.31
2022-08-14T21:18:58.963Z,98393.63
2022-08-14T21:21:41.595Z,98400.53
2022-08-14T21:24:38.756Z,98411.41
2022-08-14T21:27:12.741Z,98401.25
2022-08-14T21:29:54.056Z,98401.25
2022-08-14T21:32:35.923Z,98406.81
2022-08-14T21:35:08.509Z,98405.81
2022-08-14T21:37:47.494Z,98411.84
2022-08-14T21:40:29.654Z,98406.34
2022-08-14T21:43:18.169Z,98409.94
2022-08-14T21:45:54.006Z,98404.72
2022-08-14T21:48:29.853Z,98417.41
2022-08-14T21:51:53.418Z,98409.69
2022-08-14T21:53:58.303Z,98410.44
2022-08-14T21:56:38.600Z,98414.38
2022-08-14T21:59:11.496Z,98416.81
2022-08-14T22:02:00.578Z,98411.00
2022-08-14T22:04:40.686Z,98408.91
2022-08-14T22:07:17.206Z,98406.09
2022-08-14T22:09:55.319Z,98407.44
2022-08-14T22:12:45.496Z,98406.88
2022-08-14T22:15:16.579Z,98409.78
2022-08-14T22:17:44.754Z,98409.69
2022-08-14T22:20:20.587Z,98408.25
2022-08-14T22:22:48.687Z,98400.84
2022-08-14T22:25:33.726Z,98396.06
2022-08-14T22:28:07.054Z,98402.66
2022-08-14T22:30:39.058Z,98387.03
2022-08-14T22:33:10.127Z,98387.66
2022-08-14T22:35:42.951Z,98397.34
2022-08-14T22:38:35.741Z,98389.31
2022-08-14T22:41:25.386Z,98392.41
2022-08-14T22:43:50.151Z,98391.00
2022-08-14T22:46:20.326Z,98379.44
2022-08-14T22:48:49.769Z,98384.22
2022-08-14T22:51:19.875Z,98382.22
2022-08-14T22:53:52.513Z,98378.72
2022-08-14T22:56:30.161Z,98379.03
2022-08-14T22:59:00.638Z,98379.44
2022-08-14T23:01:56.748Z,98368.47
2022-08-14T23:04:35.498Z,98371.16
2022-08-14T23:07:22.819Z,98376.59
2022-08-14T23:09:57.640Z,98376.87
2022-08-14T23:12:54.474Z,98377.03
2022-08-14T23:15:29.799Z,98378.41
2022-08-14T23:17:58.465Z,98379.03
2022-08-14T23:20:29.252Z,98370.28
2022-08-14T23:22:58.174Z,98368.00
2022-08-14T23:25:56.973Z,98375.22
2022-08-14T23:28:34.964Z,98375.84
2022-08-14T23:31:11.575Z,98372.88
2022-08-14T23:33:45.702Z,98375.19
2022-08-14T23:36:31.516Z,98368.53
2022-08-14T23:39:02.143Z,98362.69
2022-08-14T23:41:46.519Z,98367.38
2022-08-14T23:44:24.062Z,98365.88
2022-08-14T23:46:56.859Z,98357.34
2022-08-14T23:50:00.474Z,98357.22
2022-08-14T23:52:56.221Z,98352.13
2022-08-14T23:55:11.172Z,98357.25
2022-08-14T23:57:43.556Z,98351.09
